Time;durP1;ratioP1;P1;durP2;ratioP2;P2;SDS_P1;SDS_P2;PMS_P1;PMS_P2;Temp;Humidity;BMP_temperature;BMP_pressure;BME280_temperature;BME280_humidity;BME280_pressure;Samples;Min_cycle;Max_cycle;Signal;HPM_P1;HPM_P2
2024/03/30 00:00:12;;;;;;;3.15;1.65;;;;;;;-146.25;100.00;52477.69;2079366;28;20042;-64
2024/03/30 00:01:15;;;;;;;2.13;1.92;;;;;;;-146.25;100.00;52481.75;2087957;28;20053;-63
2024/03/30 00:02:16;;;;;;;4.00;1.73;;;;;;;-146.25;100.00;52518.25;2087531;28;20042;-63
2024/03/30 00:03:18;;;;;;;2.63;1.88;;;;;;;-146.25;100.00;52467.56;2079194;28;20440;-64
2024/03/30 00:04:19;;;;;;;2.22;2.03;;;;;;;-146.25;100.00;52540.53;2071420;28;20066;-64
2024/03/30 00:05:22;;;;;;;2.17;1.98;;;;;;;-146.25;100.00;52483.78;2071372;28;20112;-65
2024/03/30 00:06:23;;;;;;;5.03;1.90;;;;;;;-146.25;100.00;52467.56;2079370;28;20869;-65
2024/03/30 00:07:26;;;;;;;2.90;2.10;;;;;;;-146.25;100.00;52483.78;2079528;28;20042;-65
2024/03/30 00:08:28;;;;;;;2.35;2.15;;;;;;;-146.25;100.00;52497.97;2079522;28;20034;-64
2024/03/30 00:09:29;;;;;;;3.53;2.42;;;;;;;-146.25;100.00;52500.00;2079470;28;20720;-64
2024/03/30 00:10:30;;;;;;;2.80;1.92;;;;;;;-146.25;100.00;52491.88;2078822;28;20691;-65
2024/03/30 00:11:32;;;;;;;2.95;2.40;;;;;;;-146.25;100.00;52514.19;2079442;28;20038;-65
2024/03/30 00:12:33;;;;;;;2.97;1.98;;;;;;;-146.25;100.00;52502.03;2079198;28;20045;-64
2024/03/30 00:13:34;;;;;;;3.03;2.33;;;;;;;-146.25;100.00;52459.44;2079528;28;20101;-63
2024/03/30 00:14:35;;;;;;;3.05;2.28;;;;;;;-146.25;100.00;52485.81;2078872;28;20054;-65
2024/03/30 00:15:40;;;;;;;2.70;1.77;;;;;;;-146.25;100.00;52439.16;2079307;28;20042;-64
2024/03/30 00:16:41;;;;;;;2.58;2.13;;;;;;;-146.25;100.00;52493.91;2080036;28;20045;-65
2024/03/30 00:17:42;;;;;;;2.65;2.38;;;;;;;-146.25;100.00;52506.06;2087579;28;20076;-64
2024/03/30 00:18:45;;;;;;;3.10;1.98;;;;;;;-146.25;100.00;52495.94;2078907;28;20050;-64
2024/03/30 00:19:50;;;;;;;2.50;1.92;;;;;;;-146.25;100.00;52493.91;2079619;28;20088;-64
2024/03/30 00:20:51;;;;;;;4.40;2.22;;;;;;;-146.25;100.00;52473.63;2086947;28;20046;-64
2024/03/30 00:21:52;;;;;;;3.05;2.00;;;;;;;-146.25;100.00;52461.47;2087597;28;20088;-63
2024/03/30 00:22:54;;;;;;;3.30;2.03;;;;;;;-146.25;100.00;52475.66;2078954;28;20046;-64
2024/03/30 00:23:55;;;;;;;2.20;2.00;;;;;;;-146.25;100.00;52459.44;2080438;28;20911;-64
2024/03/30 00:24:55;;;;;;;2.30;1.90;;;;;;;-146.25;100.00;52455.38;2080527;28;20042;-64
2024/03/30 00:25:57;;;;;;;2.40;2.15;;;;;;;-146.25;100.00;52485.81;2080937;28;20137;-64
2024/03/30 00:26:57;;;;;;;2.78;1.85;;;;;;;-146.25;100.00;52465.53;2080978;28;20946;-63
2024/03/30 00:27:59;;;;;;;3.67;2.22;;;;;;;-146.25;100.00;52477.69;2089161;28;20082;-64
2024/03/30 00:29:00;;;;;;;4.18;1.80;;;;;;;-146.25;100.00;52455.38;2088705;28;20044;-65
2024/03/30 00:30:00;;;;;;;2.47;2.03;;;;;;;-146.25;100.00;52491.88;2072605;28;20043;-64
2024/03/30 00:31:02;;;;;;;2.47;2.20;;;;;;;-146.25;100.00;52493.91;2072348;28;20069;-64
2024/03/30 00:33:36;;;;;;;3.38;2.20;;;;;;;-146.25;100.00;52461.47;2085598;28;20131;-62
2024/03/30 00:34:37;;;;;;;2.78;2.08;;;;;;;-146.25;100.00;52465.53;2089036;28;20503;-62
2024/03/30 00:35:38;;;;;;;2.95;2.00;;;;;;;-146.25;100.00;52457.41;2088785;28;20037;-62
2024/03/30 00:36:39;;;;;;;2.92;2.17;;;;;;;-146.25;100.00;52512.16;2080312;28;20488;-62
2024/03/30 00:37:39;;;;;;;2.60;1.90;;;;;;;-146.25;100.00;52485.81;2080390;28;20499;-61
2024/03/30 00:38:45;;;;;;;3.15;1.88;;;;;;;-146.25;100.00;52479.72;2080719;28;20046;-62
2024/03/30 00:39:46;;;;;;;2.72;2.13;;;;;;;-146.25;100.00;52512.16;2081311;28;20068;-62
2024/03/30 00:40:47;;;;;;;2.88;1.73;;;;;;;-146.25;100.00;52487.81;2080808;28;20049;-62
2024/03/30 00:41:47;;;;;;;2.63;1.58;;;;;;;-146.25;100.00;52453.34;2072606;28;20838;-62
2024/03/30 00:42:48;;;;;;;2.55;2.00;;;;;;;-146.25;100.00;52485.81;2072673;28;20400;-62
2024/03/30 00:43:49;;;;;;;2.53;1.98;;;;;;;-146.25;100.00;52467.56;2080318;28;20069;-62
2024/03/30 00:44:50;;;;;;;2.20;1.85;;;;;;;-146.25;100.00;52504.03;2080541;28;20042;-62
2024/03/30 00:45:51;;;;;;;2.13;1.73;;;;;;;-146.25;100.00;52451.31;2080736;28;20086;-63
2024/03/30 00:46:51;;;;;;;2.20;1.95;;;;;;;-146.25;100.00;52477.69;2080850;28;20045;-63
2024/03/30 00:47:52;;;;;;;2.95;1.88;;;;;;;-146.25;100.00;52504.03;2072511;28;20380;-62
2024/03/30 00:48:53;;;;;;;3.50;1.88;;;;;;;-146.25;100.00;52445.25;2072888;28;20049;-62
2024/03/30 00:49:57;;;;;;;2.38;1.58;;;;;;;-146.25;100.00;52502.03;2080061;28;20042;-62
2024/03/30 00:50:58;;;;;;;2.78;1.90;;;;;;;-146.25;100.00;52493.91;2088973;28;20914;-62
2024/03/30 00:51:58;;;;;;;2.53;1.73;;;;;;;-146.25;100.00;52469.56;2088661;28;20052;-62
2024/03/30 00:53:00;;;;;;;4.03;1.90;;;;;;;-146.25;100.00;52463.50;2097520;28;20041;-62
2024/03/30 00:54:00;;;;;;;2.15;1.73;;;;;;;-146.25;100.00;52479.72;2096832;28;20049;-62
2024/03/30 00:55:01;;;;;;;1.75;1.40;;;;;;;-146.25;100.00;52485.81;2088763;28;20488;-63
2024/03/30 00:56:03;;;;;;;2.40;1.98;;;;;;;-146.25;100.00;52485.81;2088638;28;20160;-62
2024/03/30 00:57:07;;;;;;;3.17;1.60;;;;;;;-146.25;100.00;52455.38;2080703;28;20888;-62
2024/03/30 00:58:08;;;;;;;3.03;1.80;;;;;;;-146.25;100.00;52461.47;2088658;28;20046;-62
2024/03/30 00:59:08;;;;;;;2.40;2.20;;;;;;;-146.25;100.00;52447.28;2097372;28;20522;-62
2024/03/30 01:00:11;;;;;;;3.08;1.83;;;;;;;-146.25;100.00;52451.31;2088628;28;20033;-62
2024/03/30 01:01:16;;;;;;;2.17;1.77;;;;;;;-146.25;100.00;52481.75;2080792;28;20082;-62
2024/03/30 01:02:17;;;;;;;2.17;1.60;;;;;;;-146.25;100.00;52489.84;2072899;28;20055;-62
2024/03/30 01:03:18;;;;;;;1.70;1.60;;;;;;;-146.25;100.00;52477.69;2082083;28;20080;-62
2024/03/30 01:04:19;;;;;;;2.03;1.70;;;;;;;-146.25;100.00;52473.63;2081346;28;20922;-62
2024/03/30 01:05:20;;;;;;;3.08;2.10;;;;;;;-146.25;100.00;52493.91;2072512;28;20050;-62
2024/03/30 01:06:21;;;;;;;2.10;1.85;;;;;;;-146.25;100.00;52457.41;2072163;28;20050;-61
2024/03/30 01:07:24;;;;;;;2.53;1.73;;;;;;;-146.25;100.00;52459.44;2080859;28;20061;-62
2024/03/30 01:08:25;;;;;;;2.63;1.63;;;;;;;-146.25;100.00;52469.56;2079954;28;20146;-61
2024/03/30 01:09:26;;;;;;;2.97;1.55;;;;;;;-146.25;100.00;52453.34;2080562;28;20042;-62
2024/03/30 01:10:27;;;;;;;2.45;1.75;;;;;;;-146.25;100.00;52443.22;2080831;28;20053;-62
2024/03/30 01:11:28;;;;;;;2.55;1.70;;;;;;;-146.25;100.00;52477.69;2088915;28;20404;-61
2024/03/30 01:12:29;;;;;;;1.83;1.52;;;;;;;-146.25;100.00;52481.75;2088413;28;20034;-62
2024/03/30 01:13:31;;;;;;;3.00;1.90;;;;;;;-146.25;100.00;52475.66;2080348;28;20049;-61
2024/03/30 01:14:35;;;;;;;2.53;1.63;;;;;;;-146.25;100.00;52493.91;2080542;28;20065;-61
2024/03/30 01:15:36;;;;;;;2.58;2.10;;;;;;;-146.25;100.00;52508.09;2080319;28;20904;-62
2024/03/30 01:16:38;;;;;;;1.75;1.52;;;;;;;-146.25;100.00;52473.63;2072076;28;20803;-61
2024/03/30 01:17:39;;;;;;;1.75;1.65;;;;;;;-146.25;100.00;52497.97;2069535;28;20034;-62
2024/03/30 01:18:40;;;;;;;2.17;1.60;;;;;;;-146.25;100.00;52485.81;2080037;28;20038;-61
2024/03/30 01:19:42;;;;;;;2.10;1.90;;;;;;;-146.25;100.00;52510.13;2080690;28;20215;-61
2024/03/30 01:20:43;;;;;;;3.15;1.85;;;;;;;-146.25;100.00;52493.91;2072238;28;20046;-62
2024/03/30 01:21:44;;;;;;;4.03;1.83;;;;;;;-146.25;100.00;52489.84;2088833;28;20033;-62
2024/03/30 01:22:45;;;;;;;2.22;1.67;;;;;;;-146.25;100.00;52457.41;2088266;28;20041;-62
2024/03/30 01:23:50;;;;;;;2.53;1.90;;;;;;;-146.25;100.00;52461.47;2088424;28;20042;-62
2024/03/30 01:24:51;;;;;;;2.78;1.70;;;;;;;-146.25;100.00;52459.44;2087619;28;20048;-62
2024/03/30 01:25:52;;;;;;;2.40;1.92;;;;;;;-146.25;100.00;52463.50;2072570;28;20105;-62
2024/03/30 01:26:57;;;;;;;2.05;1.80;;;;;;;-146.25;100.00;52473.63;2080193;28;20030;-62
2024/03/30 01:27:59;;;;;;;3.20;2.10;;;;;;;-146.25;100.00;52481.75;2080213;28;20069;-62
2024/03/30 01:29:04;;;;;;;5.40;2.25;;;;;;;-146.25;100.00;52469.56;2072146;28;20041;-62
2024/03/30 01:30:07;;;;;;;2.67;1.88;;;;;;;-146.25;100.00;52485.81;2080756;28;20026;-62
2024/03/30 01:31:10;;;;;;;2.15;1.95;;;;;;;-146.25;100.00;52451.31;2087665;28;20084;-62
2024/03/30 01:32:12;;;;;;;3.08;2.00;;;;;;;-146.25;100.00;52471.59;2080822;28;20030;-63
2024/03/30 01:33:13;;;;;;;4.25;2.10;;;;;;;-146.25;100.00;52491.88;2080143;28;20148;-63
2024/03/30 01:34:14;;;;;;;4.05;2.00;;;;;;;-146.25;100.00;52483.78;2088281;28;20025;-62
2024/03/30 01:35:19;;;;;;;2.13;1.92;;;;;;;-146.25;100.00;52502.03;2088214;28;20894;-62
2024/03/30 01:36:19;;;;;;;3.70;1.90;;;;;;;-146.25;100.00;52485.81;2072600;28;20124;-62
2024/03/30 01:37:21;;;;;;;3.58;1.98;;;;;;;-146.25;100.00;52502.03;2071762;28;20042;-62
2024/03/30 01:38:22;;;;;;;2.22;1.88;;;;;;;-146.25;100.00;52489.84;2088893;28;20095;-61
2024/03/30 01:39:26;;;;;;;2.10;1.80;;;;;;;-146.25;100.00;52497.97;2087846;28;20501;-62
2024/03/30 01:40:32;;;;;;;1.90;1.70;;;;;;;-146.25;100.00;52461.47;2064020;28;20043;-62
2024/03/30 01:41:36;;;;;;;2.33;1.85;;;;;;;-146.25;100.00;52491.88;2065589;28;20852;-63
2024/03/30 01:42:38;;;;;;;2.42;2.10;;;;;;;-146.25;100.00;52489.84;2072225;28;20045;-62
2024/03/30 01:43:39;;;;;;;4.25;2.00;;;;;;;-146.25;100.00;52483.78;2072211;28;20046;-62
2024/03/30 01:44:40;;;;;;;1.80;1.42;;;;;;;-146.25;100.00;52459.44;2072103;28;20130;-62
2024/03/30 01:45:44;;;;;;;2.28;1.75;;;;;;;-146.25;100.00;52495.94;2088071;28;20040;-63
2024/03/30 01:46:49;;;;;;;1.90;1.70;;;;;;;-146.25;100.00;52487.81;2079335;28;21069;-62
2024/03/30 01:47:49;;;;;;;1.95;1.60;;;;;;;-146.25;100.00;52489.84;2081050;28;20045;-62
2024/03/30 01:48:50;;;;;;;2.58;1.95;;;;;;;-146.25;100.00;52465.53;2088205;28;20124;-62
2024/03/30 01:49:54;;;;;;;2.38;1.80;;;;;;;-146.25;100.00;52497.97;2072060;28;20085;-63
2024/03/30 01:50:55;;;;;;;2.13;1.60;;;;;;;-146.25;100.00;52512.16;2072264;28;20043;-62
2024/03/30 01:52:00;;;;;;;3.47;1.75;;;;;;;-146.25;100.00;52512.16;2072288;28;20474;-63
2024/03/30 01:53:04;;;;;;;2.08;1.70;;;;;;;-146.25;100.00;52526.34;2072554;28;20034;-62
2024/03/30 01:54:08;;;;;;;2.65;1.70;;;;;;;-146.25;100.00;52481.75;2072263;28;20034;-62
2024/03/30 01:55:09;;;;;;;2.00;1.77;;;;;;;-146.25;100.00;52483.78;2072806;28;20935;-62
2024/03/30 01:56:12;;;;;;;2.55;2.00;;;;;;;-146.25;100.00;52477.69;2071361;28;20056;-62
2024/03/30 01:57:14;;;;;;;2.42;1.60;;;;;;;-146.25;100.00;52489.84;2072398;28;20050;-63
2024/03/30 01:58:25;;;;;;;1.75;1.65;;;;;;;-146.25;100.00;52493.91;2071767;28;20023;-62
2024/03/30 01:59:26;;;;;;;2.28;1.75;;;;;;;-146.25;100.00;52485.81;2073357;28;20043;-62
2024/03/30 02:00:27;;;;;;;2.22;2.03;;;;;;;-146.25;100.00;52477.69;2071896;28;20975;-62
2024/03/30 02:01:33;;;;;;;2.05;1.83;;;;;;;-146.25;100.00;52491.88;2072834;28;20038;-62
2024/03/30 02:02:35;;;;;;;2.17;1.70;;;;;;;-146.25;100.00;52510.13;2079553;28;20054;-62
2024/03/30 02:03:36;;;;;;;2.67;1.90;;;;;;;-146.25;100.00;52522.28;2079999;28;20034;-62
2024/03/30 02:04:40;;;;;;;1.92;1.83;;;;;;;-146.25;100.00;52522.28;2071868;28;20493;-62
2024/03/30 02:05:43;;;;;;;3.13;2.03;;;;;;;-146.25;100.00;52475.66;2080495;28;20040;-62
2024/03/30 02:06:46;;;;;;;3.58;1.95;;;;;;;-146.25;100.00;52514.19;2079508;28;20913;-62
2024/03/30 02:07:47;;;;;;;2.42;1.88;;;;;;;-146.25;100.00;52485.81;2072467;28;20034;-62
2024/03/30 02:08:50;;;;;;;3.95;2.08;;;;;;;-146.25;100.00;52491.88;2080063;28;20034;-62
2024/03/30 02:09:55;;;;;;;2.10;1.83;;;;;;;-146.25;100.00;52518.25;2088452;28;20112;-62
2024/03/30 02:10:56;;;;;;;2.90;2.38;;;;;;;-146.25;100.00;52473.63;2079576;28;20977;-62
2024/03/30 02:11:57;;;;;;;2.33;1.58;;;;;;;-146.25;100.00;52467.56;2110269;22;20119;-65
2024/03/30 02:12:58;;;;;;;1.92;1.70;;;;;;;-146.25;100.00;52475.66;2090425;28;20803;-64
2024/03/30 02:13:59;;;;;;;2.10;1.60;;;;;;;-146.25;100.00;52479.72;2080178;28;20046;-65
2024/03/30 02:15:00;;;;;;;2.28;1.95;;;;;;;-146.25;100.00;52506.06;2079747;28;20136;-66
2024/03/30 02:16:01;;;;;;;2.22;2.03;;;;;;;-146.25;100.00;52491.88;2087822;28;20618;-66
2024/03/30 02:17:01;;;;;;;3.78;1.83;;;;;;;-146.25;100.00;52485.81;2105128;28;20055;-64
2024/03/30 02:18:03;;;;;;;2.65;2.00;;;;;;;-146.25;100.00;52489.84;2104536;28;20072;-64
2024/03/30 02:19:05;;;;;;;2.38;2.05;;;;;;;-146.25;100.00;52491.88;2088237;28;20033;-64
2024/03/30 02:20:06;;;;;;;2.65;2.22;;;;;;;-146.25;100.00;52508.09;2079535;28;20038;-65
2024/03/30 02:21:07;;;;;;;5.00;1.83;;;;;;;-146.25;100.00;52483.78;2080099;28;20934;-65
2024/03/30 02:22:08;;;;;;;2.28;1.85;;;;;;;-146.25;100.00;52495.94;2096605;28;20080;-66
2024/03/30 02:23:15;;;;;;;2.35;2.00;;;;;;;-146.25;100.00;52493.91;2112918;28;20437;-64
2024/03/30 02:24:16;;;;;;;2.03;1.60;;;;;;;-146.25;100.00;52485.81;2104241;28;20114;-65
2024/03/30 02:25:19;;;;;;;2.50;1.65;;;;;;;-146.25;100.00;52481.75;2104295;28;20521;-64
2024/03/30 02:26:20;;;;;;;2.20;2.00;;;;;;;-146.25;100.00;52477.69;2104352;28;20036;-65
2024/03/30 02:27:20;;;;;;;2.22;2.03;;;;;;;-146.25;100.00;52473.63;2095808;28;20049;-64
2024/03/30 02:28:27;;;;;;;2.75;1.90;;;;;;;-146.25;100.00;52461.47;2087807;28;20048;-64
2024/03/30 02:29:32;;;;;;;2.63;1.77;;;;;;;-146.25;100.00;52487.81;2088870;28;20037;-64
2024/03/30 02:30:34;;;;;;;2.47;2.00;;;;;;;-146.25;100.00;52469.56;2088805;28;20139;-65
2024/03/30 02:31:34;;;;;;;2.78;1.80;;;;;;;-146.25;100.00;52495.94;2104768;28;20109;-66
2024/03/30 02:32:35;;;;;;;2.20;2.00;;;;;;;-146.25;100.00;52483.78;2104379;28;20478;-64
2024/03/30 02:33:37;;;;;;;2.03;1.73;;;;;;;-146.25;100.00;52465.53;2095987;28;20037;-65
2024/03/30 02:34:38;;;;;;;2.03;1.70;;;;;;;-146.25;100.00;52441.19;2096483;28;20025;-65
2024/03/30 02:35:41;;;;;;;2.28;1.75;;;;;;;-146.25;100.00;52467.56;2079167;28;20046;-64
2024/03/30 02:36:42;;;;;;;2.08;1.90;;;;;;;-146.25;100.00;52497.97;2097018;28;20546;-65
2024/03/30 02:37:46;;;;;;;2.83;1.88;;;;;;;-146.25;100.00;52469.56;2104594;28;20033;-66
2024/03/30 02:38:46;;;;;;;3.42;1.95;;;;;;;-146.25;100.00;52441.19;2079770;28;20038;-64
2024/03/30 02:39:47;;;;;;;1.67;1.58;;;;;;;-146.25;100.00;52465.53;2097242;28;20552;-65
2024/03/30 02:40:56;;;;;;;2.83;1.63;;;;;;;-146.25;100.00;52475.66;2104985;28;20080;-65
2024/03/30 02:41:56;;;;;;;2.85;1.58;;;;;;;-146.25;100.00;52481.75;2105687;28;20122;-64
2024/03/30 02:42:57;;;;;;;2.30;2.05;;;;;;;-146.25;100.00;52461.47;2107977;28;20048;-66
2024/03/30 02:43:58;;;;;;;3.50;1.52;;;;;;;-146.25;100.00;52508.09;2096261;28;20403;-65
2024/03/30 02:44:59;;;;;;;1.60;1.33;;;;;;;-146.25;100.00;52485.81;2096248;28;20048;-66
2024/03/30 02:46:01;;;;;;;1.80;1.50;;;;;;;-146.25;100.00;52516.22;2087069;28;20046;-66
2024/03/30 02:47:01;;;;;;;1.38;1.27;;;;;;;-146.25;100.00;52461.47;2104468;28;20032;-65
2024/03/30 02:48:03;;;;;;;1.90;1.65;;;;;;;-146.25;100.00;52500.00;2096134;28;20041;-65
2024/03/30 02:49:03;;;;;;;1.83;1.60;;;;;;;-146.25;100.00;52469.56;2096389;28;20041;-66
2024/03/30 02:50:05;;;;;;;2.38;1.65;;;;;;;-146.25;100.00;52461.47;2104450;28;20525;-64
2024/03/30 02:51:06;;;;;;;3.15;1.63;;;;;;;-146.25;100.00;52481.75;2088067;28;20049;-64
2024/03/30 02:52:07;;;;;;;1.73;1.63;;;;;;;-146.25;100.00;52493.91;2088218;28;20079;-65
2024/03/30 02:53:10;;;;;;;3.50;1.70;;;;;;;-146.25;100.00;52471.59;2104689;28;20099;-64
2024/03/30 02:54:12;;;;;;;2.90;1.33;;;;;;;-146.25;100.00;52471.59;2096198;28;20049;-66
2024/03/30 02:55:13;;;;;;;2.58;1.33;;;;;;;-146.25;100.00;52469.56;2104659;28;20044;-66
2024/03/30 02:56:13;;;;;;;1.58;1.45;;;;;;;-146.25;100.00;52485.81;2104755;28;20522;-66
2024/03/30 02:57:15;;;;;;;1.55;1.35;;;;;;;-146.25;100.00;52506.06;2104316;28;20539;-66
2024/03/30 02:58:16;;;;;;;2.20;1.70;;;;;;;-146.25;100.00;52473.63;2104727;28;20927;-65
2024/03/30 02:59:17;;;;;;;2.28;1.45;;;;;;;-146.25;100.00;52495.94;2087764;28;20050;-65
2024/03/30 03:00:20;;;;;;;2.03;1.75;;;;;;;-146.25;100.00;52451.31;2088446;28;20087;-67
2024/03/30 03:01:21;;;;;;;1.55;1.42;;;;;;;-146.25;100.00;52457.41;2096389;28;20040;-63
2024/03/30 03:02:22;;;;;;;1.67;1.40;;;;;;;-146.25;100.00;52540.53;2096143;28;20041;-64
2024/03/30 03:03:23;;;;;;;2.38;1.60;;;;;;;-146.25;100.00;52485.81;2095978;28;20434;-64
2024/03/30 03:04:24;;;;;;;1.92;1.55;;;;;;;-146.25;100.00;52489.84;2096645;28;20045;-65
2024/03/30 03:05:25;;;;;;;4.20;1.70;;;;;;;-146.25;100.00;52495.94;2104314;28;20515;-65
2024/03/30 03:06:26;;;;;;;3.83;1.65;;;;;;;-146.25;100.00;52491.88;2113177;28;20047;-65
2024/03/30 03:07:26;;;;;;;2.47;1.90;;;;;;;-146.25;100.00;52495.94;2104348;28;20120;-65
2024/03/30 03:08:27;;;;;;;1.48;1.25;;;;;;;-146.25;100.00;52487.81;2105057;28;20044;-65
2024/03/30 03:09:29;;;;;;;1.80;1.50;;;;;;;-146.25;100.00;52461.47;2095977;28;20037;-65
2024/03/30 03:10:31;;;;;;;1.70;1.33;;;;;;;-146.25;100.00;52487.81;2096201;28;20041;-64
2024/03/30 03:11:32;;;;;;;3.00;1.60;;;;;;;-146.25;100.00;52510.13;2096472;28;21079;-64
2024/03/30 03:12:33;;;;;;;1.90;1.48;;;;;;;-146.25;100.00;52493.91;2096174;28;20452;-64
2024/03/30 03:13:34;;;;;;;2.30;1.63;;;;;;;-146.25;100.00;52489.84;2095921;28;20116;-65
2024/03/30 03:14:37;;;;;;;2.78;1.58;;;;;;;-146.25;100.00;52461.47;2096427;28;20048;-64
2024/03/30 03:15:38;;;;;;;2.35;1.42;;;;;;;-146.25;100.00;52481.75;2087739;28;20806;-64
2024/03/30 03:16:39;;;;;;;2.95;1.42;;;;;;;-146.25;100.00;52473.63;2096436;28;20044;-65
2024/03/30 03:17:40;;;;;;;2.05;1.83;;;;;;;-146.25;100.00;52518.25;2101423;28;20466;-64
2024/03/30 03:18:43;;;;;;;2.45;1.70;;;;;;;-146.25;100.00;52506.06;2088157;28;20037;-65
2024/03/30 03:19:44;;;;;;;2.40;1.70;;;;;;;-146.25;100.00;52489.84;2087354;28;20046;-65
2024/03/30 03:20:44;;;;;;;2.72;1.50;;;;;;;-146.25;100.00;52453.34;2079656;28;20037;-65
2024/03/30 03:21:47;;;;;;;2.38;1.80;;;;;;;-146.25;100.00;52491.88;2095428;28;20215;-65
2024/03/30 03:22:48;;;;;;;2.03;1.50;;;;;;;-146.25;100.00;52471.59;2088404;28;20830;-65
2024/03/30 03:23:51;;;;;;;2.03;1.60;;;;;;;-146.25;100.00;52481.75;2079198;28;20042;-65
2024/03/30 03:24:51;;;;;;;2.03;1.70;;;;;;;-146.25;100.00;52479.72;2088177;28;20712;-65
2024/03/30 03:25:52;;;;;;;3.10;1.48;;;;;;;-146.25;100.00;52481.75;2087716;28;20045;-65
2024/03/30 03:26:53;;;;;;;2.17;1.63;;;;;;;-146.25;100.00;52475.66;2088083;28;20041;-64
2024/03/30 03:27:54;;;;;;;2.10;1.50;;;;;;;-146.25;100.00;52477.69;2087791;28;20053;-65
2024/03/30 03:28:55;;;;;;;2.65;1.70;;;;;;;-146.25;100.00;52465.53;2087548;28;20038;-64
2024/03/30 03:29:55;;;;;;;1.75;1.40;;;;;;;-146.25;100.00;52491.88;2095824;28;20049;-66
2024/03/30 03:30:59;;;;;;;2.42;1.60;;;;;;;-146.25;100.00;52477.69;2096321;28;20041;-66
2024/03/30 03:32:00;;;;;;;2.03;1.77;;;;;;;-146.25;100.00;52485.81;2095858;28;20080;-66
2024/03/30 03:33:01;;;;;;;2.88;1.73;;;;;;;-146.25;100.00;52489.84;2079306;28;20493;-65
2024/03/30 03:34:02;;;;;;;1.83;1.60;;;;;;;-146.25;100.00;52447.28;2079225;28;20125;-66
2024/03/30 03:35:03;;;;;;;3.72;1.50;;;;;;;-146.25;100.00;52483.78;2096227;28;20127;-66
2024/03/30 03:36:05;;;;;;;2.25;2.03;;;;;;;-146.25;100.00;52473.63;2104048;28;20044;-64
2024/03/30 03:37:06;;;;;;;2.30;1.58;;;;;;;-146.25;100.00;52504.03;2104182;28;20036;-66
2024/03/30 03:38:09;;;;;;;2.92;1.60;;;;;;;-146.25;100.00;52477.69;2096129;28;20124;-64
2024/03/30 03:39:10;;;;;;;2.05;1.63;;;;;;;-146.25;100.00;52508.09;2112812;28;20044;-65
2024/03/30 03:40:11;;;;;;;3.70;1.70;;;;;;;-146.25;100.00;52497.97;2104416;28;20510;-64
2024/03/30 03:41:12;;;;;;;2.35;1.75;;;;;;;-146.25;100.00;52514.19;2087788;28;20245;-65
2024/03/30 03:42:13;;;;;;;2.15;1.80;;;;;;;-146.25;100.00;52477.69;2087746;28;20180;-64
2024/03/30 03:43:13;;;;;;;2.15;1.63;;;;;;;-146.25;100.00;52495.94;2087782;28;20053;-63
2024/03/30 03:44:14;;;;;;;2.05;1.73;;;;;;;-146.25;100.00;52477.69;2104303;28;20036;-65
2024/03/30 03:45:15;;;;;;;2.78;1.80;;;;;;;-146.25;100.00;52489.84;2104358;28;20768;-64
2024/03/30 03:46:16;;;;;;;2.15;1.70;;;;;;;-146.25;100.00;52510.13;2087354;28;20100;-66
2024/03/30 03:47:17;;;;;;;2.17;1.80;;;;;;;-146.25;100.00;52479.72;2087332;28;20444;-66
2024/03/30 03:48:18;;;;;;;1.63;1.40;;;;;;;-146.25;100.00;52457.41;2087595;28;20037;-65
2024/03/30 03:49:18;;;;;;;1.70;1.60;;;;;;;-146.25;100.00;52502.03;2087606;28;20042;-66
2024/03/30 03:50:19;;;;;;;2.30;2.00;;;;;;;-146.25;100.00;52477.69;2104307;28;20087;-65
2024/03/30 03:51:20;;;;;;;2.33;1.45;;;;;;;-146.25;100.00;52508.09;2112602;28;20105;-66
2024/03/30 03:52:21;;;;;;;2.47;1.48;;;;;;;-146.25;100.00;52495.94;2096051;28;20049;-65
2024/03/30 03:53:22;;;;;;;3.58;1.88;;;;;;;-146.25;100.00;52526.34;2087588;28;20172;-65
2024/03/30 03:54:23;;;;;;;2.25;1.63;;;;;;;-146.25;100.00;52471.59;2087951;28;20147;-66
2024/03/30 03:55:24;;;;;;;2.10;1.90;;;;;;;-146.25;100.00;52516.22;2087511;28;20049;-64
2024/03/30 03:56:25;;;;;;;1.75;1.65;;;;;;;-146.25;100.00;52493.91;2095985;28;20060;-65
2024/03/30 03:57:28;;;;;;;1.70;1.60;;;;;;;-146.25;100.00;52524.31;2096436;28;20075;-66
2024/03/30 03:58:28;;;;;;;2.72;1.75;;;;;;;-146.25;100.00;52506.06;2089630;28;20404;-64
2024/03/30 03:59:30;;;;;;;1.88;1.67;;;;;;;-146.25;100.00;52493.91;2088616;28;20046;-65
2024/03/30 04:00:33;;;;;;;3.15;1.85;;;;;;;-146.25;100.00;52493.91;2105590;28;20995;-65
2024/03/30 04:01:34;;;;;;;2.78;1.88;;;;;;;-146.25;100.00;52485.81;2104491;28;20040;-65
2024/03/30 04:02:35;;;;;;;3.38;1.75;;;;;;;-146.25;100.00;52445.25;2105503;28;20036;-65
2024/03/30 04:03:36;;;;;;;2.58;1.65;;;;;;;-146.25;100.00;52481.75;2113111;28;20085;-65
2024/03/30 04:04:37;;;;;;;2.42;2.00;;;;;;;-146.25;100.00;52469.56;2097011;28;20049;-66
2024/03/30 04:05:37;;;;;;;3.17;2.10;;;;;;;-146.25;100.00;52530.41;2097317;28;20041;-65
2024/03/30 04:06:38;;;;;;;2.00;1.80;;;;;;;-146.25;100.00;52502.03;2098007;28;20116;-65
2024/03/30 04:07:39;;;;;;;3.80;1.90;;;;;;;-146.25;100.00;52477.69;2105641;28;20040;-64
2024/03/30 04:08:40;;;;;;;1.85;1.67;;;;;;;-146.25;100.00;52495.94;2097430;28;20059;-64
2024/03/30 04:09:41;;;;;;;2.08;1.75;;;;;;;-146.25;100.00;52510.13;2105275;28;20051;-64
2024/03/30 04:10:41;;;;;;;2.30;1.80;;;;;;;-146.25;100.00;52491.88;2105112;28;20052;-65
2024/03/30 04:11:44;;;;;;;2.70;1.90;;;;;;;-146.25;100.00;52497.97;2088452;28;20519;-66
2024/03/30 04:12:48;;;;;;;3.03;2.17;;;;;;;-146.25;100.00;52493.91;2106079;28;20079;-65
2024/03/30 04:13:51;;;;;;;2.53;1.95;;;;;;;-146.25;100.00;52487.81;2105172;28;20033;-66
2024/03/30 04:14:52;;;;;;;3.13;2.13;;;;;;;-146.25;100.00;52485.81;2089327;28;20034;-65
2024/03/30 04:15:53;;;;;;;2.60;1.90;;;;;;;-146.25;100.00;52465.53;2088909;28;20080;-63
2024/03/30 04:16:54;;;;;;;3.35;2.10;;;;;;;-146.25;100.00;52495.94;2089141;28;20076;-64
2024/03/30 04:17:55;;;;;;;2.38;2.10;;;;;;;-146.25;100.00;52495.94;2088409;28;20038;-64
2024/03/30 04:18:58;;;;;;;4.50;2.28;;;;;;;-146.25;100.00;52524.31;2089423;28;20442;-64
2024/03/30 04:19:59;;;;;;;2.55;1.92;;;;;;;-146.25;100.00;52465.53;2089166;28;20121;-66
2024/03/30 04:21:04;;;;;;;2.80;2.33;;;;;;;-146.25;100.00;52497.97;2097534;28;20112;-64
2024/03/30 04:22:05;;;;;;;2.00;1.80;;;;;;;-146.25;100.00;52510.13;2098020;28;20930;-64
2024/03/30 04:23:06;;;;;;;3.17;2.10;;;;;;;-146.25;100.00;52487.81;2097497;28;20045;-64
2024/03/30 04:24:06;;;;;;;2.22;1.92;;;;;;;-146.25;100.00;52481.75;2096730;28;20049;-65
2024/03/30 04:25:08;;;;;;;6.43;2.28;;;;;;;-146.25;100.00;52479.72;2097092;28;20084;-65
2024/03/30 04:26:11;;;;;;;2.67;2.30;;;;;;;-146.25;100.00;52506.06;2097411;28;20041;-66
2024/03/30 04:27:12;;;;;;;2.10;1.90;;;;;;;-146.25;100.00;52520.28;2105399;28;20122;-66
2024/03/30 04:28:13;;;;;;;3.75;2.50;;;;;;;-146.25;100.00;52497.97;2106060;28;20045;-64
2024/03/30 04:29:14;;;;;;;3.15;2.85;;;;;;;-146.25;100.00;52475.66;2105708;28;20037;-65
2024/03/30 04:30:17;;;;;;;3.55;2.83;;;;;;;-146.25;100.00;52524.31;2105861;28;20475;-63
2024/03/30 04:31:20;;;;;;;3.10;2.72;;;;;;;-146.25;100.00;52471.59;2106010;28;20045;-65
2024/03/30 04:32:21;;;;;;;3.50;2.90;;;;;;;-146.25;100.00;52469.56;2105685;28;20048;-65
2024/03/30 04:33:22;;;;;;;5.88;2.88;;;;;;;-146.25;100.00;52506.06;2105600;28;20048;-65
2024/03/30 04:34:23;;;;;;;2.90;2.60;;;;;;;-146.25;100.00;52469.56;2088816;28;20042;-67
2024/03/30 04:35:24;;;;;;;4.65;2.53;;;;;;;-146.25;100.00;52510.13;2097242;28;20048;-66
2024/03/30 04:36:24;;;;;;;2.80;2.60;;;;;;;-146.25;100.00;52508.09;2105432;28;20051;-66
2024/03/30 04:37:27;;;;;;;3.50;3.20;;;;;;;-146.25;100.00;52497.97;2105676;28;20036;-66
2024/03/30 04:38:29;;;;;;;3.28;2.92;;;;;;;-146.25;100.00;52435.09;2089128;28;20037;-67
2024/03/30 04:39:33;;;;;;;2.95;2.58;;;;;;;-146.25;100.00;52495.94;2105672;28;20029;-66
2024/03/30 04:40:34;;;;;;;3.05;2.75;;;;;;;-146.25;100.00;52495.94;2105070;28;20935;-64
2024/03/30 04:41:34;;;;;;;2.88;2.58;;;;;;;-146.25;100.00;52477.69;2088702;28;20042;-66